sensor_id;sensor_type;location;lat;lon;timestamp;P1;durP1;ratioP1;P2;durP2;ratioP2
20884;SDS011;10602;48.000;9.654;2024-01-27T00:00:45;7.00;;;5.47;;
20884;SDS011;10602;48.000;9.654;2024-01-27T00:03:13;9.97;;;4.97;;
20884;SDS011;10602;48.000;9.654;2024-01-27T00:05:40;7.50;;;4.33;;
20884;SDS011;10602;48.000;9.654;2024-01-27T00:08:08;4.40;;;3.23;;
20884;SDS011;10602;48.000;9.654;2024-01-27T00:10:35;4.07;;;2.70;;
20884;SDS011;10602;48.000;9.654;2024-01-27T00:13:03;4.80;;;2.80;;
20884;SDS011;10602;48.000;9.654;2024-01-27T00:15:31;5.53;;;2.23;;
20884;SDS011;10602;48.000;9.654;2024-01-27T00:17:58;6.03;;;2.93;;
20884;SDS011;10602;48.000;9.654;2024-01-27T00:20:25;3.27;;;2.10;;
20884;SDS011;10602;48.000;9.654;2024-01-27T00:22:53;2.60;;;2.10;;
20884;SDS011;10602;48.000;9.654;2024-01-27T00:25:20;2.30;;;2.10;;
20884;SDS011;10602;48.000;9.654;2024-01-27T00:27:48;3.27;;;2.20;;
20884;SDS011;10602;48.000;9.654;2024-01-27T00:30:15;2.97;;;2.30;;
20884;SDS011;10602;48.000;9.654;2024-01-27T00:32:43;4.77;;;2.67;;
20884;SDS011;10602;48.000;9.654;2024-01-27T00:35:11;3.27;;;2.00;;
20884;SDS011;10602;48.000;9.654;2024-01-27T00:37:40;3.07;;;2.13;;
20884;SDS011;10602;48.000;9.654;2024-01-27T00:40:08;2.43;;;2.07;;
20884;SDS011;10602;48.000;9.654;2024-01-27T00:42:37;2.87;;;2.27;;
20884;SDS011;10602;48.000;9.654;2024-01-27T00:45:05;3.57;;;2.30;;
20884;SDS011;10602;48.000;9.654;2024-01-27T00:47:32;2.33;;;2.03;;
20884;SDS011;10602;48.000;9.654;2024-01-27T00:50:00;4.90;;;2.50;;
20884;SDS011;10602;48.000;9.654;2024-01-27T00:52:27;2.73;;;2.13;;
20884;SDS011;10602;48.000;9.654;2024-01-27T00:54:55;4.13;;;2.33;;
20884;SDS011;10602;48.000;9.654;2024-01-27T00:57:22;4.03;;;2.70;;
20884;SDS011;10602;48.000;9.654;2024-01-27T00:59:50;4.60;;;2.60;;
20884;SDS011;10602;48.000;9.654;2024-01-27T01:02:17;2.90;;;2.40;;
20884;SDS011;10602;48.000;9.654;2024-01-27T01:04:45;3.40;;;2.30;;
20884;SDS011;10602;48.000;9.654;2024-01-27T01:07:13;2.63;;;2.30;;
20884;SDS011;10602;48.000;9.654;2024-01-27T01:09:41;2.50;;;2.30;;
20884;SDS011;10602;48.000;9.654;2024-01-27T01:12:09;4.30;;;2.70;;
20884;SDS011;10602;48.000;9.654;2024-01-27T01:14:36;3.27;;;2.60;;
20884;SDS011;10602;48.000;9.654;2024-01-27T01:17:05;2.43;;;2.07;;
20884;SDS011;10602;48.000;9.654;2024-01-27T01:19:32;4.73;;;2.27;;
20884;SDS011;10602;48.000;9.654;2024-01-27T01:22:00;7.83;;;3.80;;
20884;SDS011;10602;48.000;9.654;2024-01-27T01:24:27;6.93;;;3.20;;
20884;SDS011;10602;48.000;9.654;2024-01-27T01:26:56;3.20;;;2.50;;
20884;SDS011;10602;48.000;9.654;2024-01-27T01:29:23;5.03;;;2.63;;
20884;SDS011;10602;48.000;9.654;2024-01-27T01:31:51;3.77;;;2.93;;
20884;SDS011;10602;48.000;9.654;2024-01-27T01:34:19;8.73;;;3.70;;
20884;SDS011;10602;48.000;9.654;2024-01-27T01:36:46;16.33;;;7.53;;
20884;SDS011;10602;48.000;9.654;2024-01-27T01:39:14;11.77;;;6.80;;
20884;SDS011;10602;48.000;9.654;2024-01-27T01:41:42;4.03;;;2.70;;
20884;SDS011;10602;48.000;9.654;2024-01-27T01:44:09;3.30;;;2.63;;
20884;SDS011;10602;48.000;9.654;2024-01-27T01:46:37;5.83;;;2.87;;
20884;SDS011;10602;48.000;9.654;2024-01-27T01:49:05;4.40;;;2.70;;
20884;SDS011;10602;48.000;9.654;2024-01-27T01:51:32;3.83;;;2.40;;
20884;SDS011;10602;48.000;9.654;2024-01-27T01:54:00;3.53;;;2.67;;
20884;SDS011;10602;48.000;9.654;2024-01-27T01:56:27;5.40;;;3.43;;
20884;SDS011;10602;48.000;9.654;2024-01-27T01:58:56;8.33;;;3.40;;
20884;SDS011;10602;48.000;9.654;2024-01-27T02:01:23;8.70;;;3.77;;
20884;SDS011;10602;48.000;9.654;2024-01-27T02:03:51;4.30;;;3.00;;
20884;SDS011;10602;48.000;9.654;2024-01-27T02:06:20;5.73;;;3.50;;
20884;SDS011;10602;48.000;9.654;2024-01-27T02:08:48;4.47;;;2.87;;
20884;SDS011;10602;48.000;9.654;2024-01-27T02:11:15;4.57;;;3.27;;
20884;SDS011;10602;48.000;9.654;2024-01-27T02:13:43;7.10;;;3.10;;
20884;SDS011;10602;48.000;9.654;2024-01-27T02:16:11;5.57;;;3.43;;
20884;SDS011;10602;48.000;9.654;2024-01-27T02:18:38;7.20;;;3.90;;
20884;SDS011;10602;48.000;9.654;2024-01-27T02:21:06;5.17;;;3.47;;
20884;SDS011;10602;48.000;9.654;2024-01-27T02:23:33;4.60;;;3.30;;
20884;SDS011;10602;48.000;9.654;2024-01-27T02:26:01;4.80;;;3.30;;
20884;SDS011;10602;48.000;9.654;2024-01-27T02:28:28;6.93;;;3.63;;
20884;SDS011;10602;48.000;9.654;2024-01-27T02:31:01;7.13;;;4.03;;
20884;SDS011;10602;48.000;9.654;2024-01-27T02:33:29;5.57;;;3.70;;
20884;SDS011;10602;48.000;9.654;2024-01-27T02:35:56;4.90;;;2.90;;
20884;SDS011;10602;48.000;9.654;2024-01-27T02:38:24;3.53;;;2.67;;
20884;SDS011;10602;48.000;9.654;2024-01-27T02:40:51;3.53;;;2.43;;
20884;SDS011;10602;48.000;9.654;2024-01-27T02:43:19;2.30;;;1.87;;
20884;SDS011;10602;48.000;9.654;2024-01-27T02:45:46;4.77;;;2.17;;
20884;SDS011;10602;48.000;9.654;2024-01-27T02:48:14;2.70;;;1.97;;
20884;SDS011;10602;48.000;9.654;2024-01-27T02:50:41;2.37;;;1.93;;
20884;SDS011;10602;48.000;9.654;2024-01-27T02:53:09;3.60;;;1.93;;
20884;SDS011;10602;48.000;9.654;2024-01-27T02:55:36;3.80;;;2.27;;
20884;SDS011;10602;48.000;9.654;2024-01-27T02:58:04;2.50;;;2.00;;
20884;SDS011;10602;48.000;9.654;2024-01-27T03:00:32;2.50;;;2.10;;
20884;SDS011;10602;48.000;9.654;2024-01-27T03:02:59;2.37;;;1.77;;
20884;SDS011;10602;48.000;9.654;2024-01-27T03:05:27;3.00;;;1.93;;
20884;SDS011;10602;48.000;9.654;2024-01-27T03:07:54;2.47;;;1.93;;
20884;SDS011;10602;48.000;9.654;2024-01-27T03:10:22;1.97;;;1.77;;
20884;SDS011;10602;48.000;9.654;2024-01-27T03:12:49;3.53;;;2.60;;
20884;SDS011;10602;48.000;9.654;2024-01-27T03:15:17;4.93;;;1.87;;
20884;SDS011;10602;48.000;9.654;2024-01-27T03:17:44;2.97;;;2.23;;
20884;SDS011;10602;48.000;9.654;2024-01-27T03:20:12;2.27;;;1.83;;
20884;SDS011;10602;48.000;9.654;2024-01-27T03:22:39;2.63;;;2.20;;
20884;SDS011;10602;48.000;9.654;2024-01-27T03:25:08;2.87;;;1.97;;
20884;SDS011;10602;48.000;9.654;2024-01-27T03:27:38;2.73;;;2.30;;
20884;SDS011;10602;48.000;9.654;2024-01-27T03:30:05;2.63;;;2.00;;
20884;SDS011;10602;48.000;9.654;2024-01-27T03:32:33;3.70;;;2.20;;
20884;SDS011;10602;48.000;9.654;2024-01-27T03:35:01;3.43;;;2.40;;
20884;SDS011;10602;48.000;9.654;2024-01-27T03:37:29;3.07;;;2.27;;
20884;SDS011;10602;48.000;9.654;2024-01-27T03:39:56;4.33;;;2.83;;
20884;SDS011;10602;48.000;9.654;2024-01-27T03:42:23;4.57;;;2.40;;
20884;SDS011;10602;48.000;9.654;2024-01-27T03:44:51;4.03;;;2.30;;
20884;SDS011;10602;48.000;9.654;2024-01-27T03:47:19;2.87;;;2.30;;
20884;SDS011;10602;48.000;9.654;2024-01-27T03:49:47;5.03;;;2.10;;
20884;SDS011;10602;48.000;9.654;2024-01-27T03:52:14;5.77;;;2.67;;
20884;SDS011;10602;48.000;9.654;2024-01-27T03:54:42;7.10;;;3.53;;
20884;SDS011;10602;48.000;9.654;2024-01-27T03:57:09;8.20;;;6.00;;
20884;SDS011;10602;48.000;9.654;2024-01-27T03:59:39;6.40;;;5.00;;
20884;SDS011;10602;48.000;9.654;2024-01-27T04:02:08;4.40;;;3.37;;
20884;SDS011;10602;48.000;9.654;2024-01-27T04:04:36;4.97;;;3.03;;
20884;SDS011;10602;48.000;9.654;2024-01-27T04:07:03;6.57;;;3.00;;
20884;SDS011;10602;48.000;9.654;2024-01-27T04:09:31;4.23;;;2.90;;
20884;SDS011;10602;48.000;9.654;2024-01-27T04:11:58;4.20;;;3.17;;
20884;SDS011;10602;48.000;9.654;2024-01-27T04:14:26;3.30;;;2.40;;
20884;SDS011;10602;48.000;9.654;2024-01-27T04:16:53;3.10;;;2.30;;
20884;SDS011;10602;48.000;9.654;2024-01-27T04:19:21;5.47;;;2.17;;
20884;SDS011;10602;48.000;9.654;2024-01-27T04:21:48;3.20;;;2.53;;
20884;SDS011;10602;48.000;9.654;2024-01-27T04:24:16;3.30;;;1.70;;
20884;SDS011;10602;48.000;9.654;2024-01-27T04:26:44;3.20;;;2.10;;
20884;SDS011;10602;48.000;9.654;2024-01-27T04:29:11;4.07;;;2.17;;
20884;SDS011;10602;48.000;9.654;2024-01-27T04:31:41;5.00;;;2.10;;
20884;SDS011;10602;48.000;9.654;2024-01-27T04:34:08;3.50;;;2.00;;
20884;SDS011;10602;48.000;9.654;2024-01-27T04:36:36;3.20;;;1.97;;
20884;SDS011;10602;48.000;9.654;2024-01-27T04:39:03;3.73;;;2.57;;
20884;SDS011;10602;48.000;9.654;2024-01-27T04:41:31;2.93;;;2.07;;
20884;SDS011;10602;48.000;9.654;2024-01-27T04:43:58;4.60;;;2.37;;
20884;SDS011;10602;48.000;9.654;2024-01-27T04:46:26;3.13;;;2.23;;
20884;SDS011;10602;48.000;9.654;2024-01-27T04:48:54;2.70;;;2.13;;
20884;SDS011;10602;48.000;9.654;2024-01-27T04:51:22;3.37;;;2.30;;
20884;SDS011;10602;48.000;9.654;2024-01-27T04:53:50;3.10;;;1.80;;
20884;SDS011;10602;48.000;9.654;2024-01-27T04:56:17;3.97;;;1.93;;
20884;SDS011;10602;48.000;9.654;2024-01-27T04:58:45;3.13;;;2.00;;
20884;SDS011;10602;48.000;9.654;2024-01-27T05:01:12;3.97;;;2.60;;
20884;SDS011;10602;48.000;9.654;2024-01-27T05:03:40;4.47;;;2.53;;
20884;SDS011;10602;48.000;9.654;2024-01-27T05:06:08;3.23;;;2.40;;
20884;SDS011;10602;48.000;9.654;2024-01-27T05:08:35;4.60;;;2.60;;
20884;SDS011;10602;48.000;9.654;2024-01-27T05:11:03;5.00;;;2.60;;
20884;SDS011;10602;48.000;9.654;2024-01-27T05:13:31;4.13;;;2.70;;
20884;SDS011;10602;48.000;9.654;2024-01-27T05:15:58;5.00;;;2.60;;
20884;SDS011;10602;48.000;9.654;2024-01-27T05:18:26;3.30;;;2.50;;
20884;SDS011;10602;48.000;9.654;2024-01-27T05:20:53;5.07;;;2.40;;
20884;SDS011;10602;48.000;9.654;2024-01-27T05:23:21;3.17;;;2.57;;
20884;SDS011;10602;48.000;9.654;2024-01-27T05:25:49;7.23;;;3.87;;
20884;SDS011;10602;48.000;9.654;2024-01-27T05:28:16;4.57;;;3.33;;
20884;SDS011;10602;48.000;9.654;2024-01-27T05:30:44;3.40;;;3.07;;
20884;SDS011;10602;48.000;9.654;2024-01-27T05:33:11;4.77;;;3.20;;
20884;SDS011;10602;48.000;9.654;2024-01-27T05:35:39;6.00;;;3.50;;
20884;SDS011;10602;48.000;9.654;2024-01-27T05:38:06;4.50;;;3.30;;
20884;SDS011;10602;48.000;9.654;2024-01-27T05:40:34;4.67;;;3.43;;
20884;SDS011;10602;48.000;9.654;2024-01-27T05:43:02;3.73;;;2.90;;
20884;SDS011;10602;48.000;9.654;2024-01-27T05:45:29;5.37;;;3.50;;
20884;SDS011;10602;48.000;9.654;2024-01-27T05:47:57;5.57;;;3.13;;
20884;SDS011;10602;48.000;9.654;2024-01-27T05:50:25;4.63;;;2.90;;
20884;SDS011;10602;48.000;9.654;2024-01-27T05:52:53;5.17;;;3.27;;
20884;SDS011;10602;48.000;9.654;2024-01-27T05:55:21;5.23;;;3.27;;
20884;SDS011;10602;48.000;9.654;2024-01-27T05:57:48;6.97;;;3.20;;
20884;SDS011;10602;48.000;9.654;2024-01-27T06:00:16;3.50;;;2.97;;
20884;SDS011;10602;48.000;9.654;2024-01-27T06:02:43;5.13;;;3.77;;
20884;SDS011;10602;48.000;9.654;2024-01-27T06:05:11;4.33;;;3.27;;
20884;SDS011;10602;48.000;9.654;2024-01-27T06:07:38;5.20;;;3.70;;
20884;SDS011;10602;48.000;9.654;2024-01-27T06:10:07;4.27;;;3.40;;
20884;SDS011;10602;48.000;9.654;2024-01-27T06:12:36;5.03;;;3.40;;
20884;SDS011;10602;48.000;9.654;2024-01-27T06:15:05;5.80;;;3.40;;
20884;SDS011;10602;48.000;9.654;2024-01-27T06:17:34;7.00;;;3.00;;
20884;SDS011;10602;48.000;9.654;2024-01-27T06:20:02;5.57;;;3.10;;
20884;SDS011;10602;48.000;9.654;2024-01-27T06:22:30;5.07;;;3.13;;
20884;SDS011;10602;48.000;9.654;2024-01-27T06:24:58;5.27;;;4.13;;
20884;SDS011;10602;48.000;9.654;2024-01-27T06:27:26;6.33;;;3.50;;
20884;SDS011;10602;48.000;9.654;2024-01-27T06:29:53;5.37;;;3.10;;
20884;SDS011;10602;48.000;9.654;2024-01-27T06:32:21;4.00;;;2.70;;
20884;SDS011;10602;48.000;9.654;2024-01-27T06:34:48;5.03;;;2.27;;
20884;SDS011;10602;48.000;9.654;2024-01-27T06:37:16;4.47;;;2.20;;
20884;SDS011;10602;48.000;9.654;2024-01-27T06:39:43;4.10;;;2.33;;
20884;SDS011;10602;48.000;9.654;2024-01-27T06:42:11;2.87;;;2.33;;
20884;SDS011;10602;48.000;9.654;2024-01-27T06:44:38;3.90;;;2.10;;
20884;SDS011;10602;48.000;9.654;2024-01-27T06:47:06;2.83;;;2.37;;
20884;SDS011;10602;48.000;9.654;2024-01-27T06:49:33;4.37;;;2.43;;
20884;SDS011;10602;48.000;9.654;2024-01-27T06:52:01;4.00;;;2.43;;
20884;SDS011;10602;48.000;9.654;2024-01-27T06:54:28;3.40;;;2.50;;
20884;SDS011;10602;48.000;9.654;2024-01-27T06:56:56;4.10;;;3.70;;
20884;SDS011;10602;48.000;9.654;2024-01-27T06:59:26;6.57;;;4.20;;
20884;SDS011;10602;48.000;9.654;2024-01-27T07:01:53;9.73;;;5.37;;
20884;SDS011;10602;48.000;9.654;2024-01-27T07:04:22;10.57;;;5.67;;
20884;SDS011;10602;48.000;9.654;2024-01-27T07:06:50;12.77;;;7.97;;
20884;SDS011;10602;48.000;9.654;2024-01-27T07:09:17;16.77;;;10.47;;
20884;SDS011;10602;48.000;9.654;2024-01-27T07:11:45;17.70;;;9.47;;
20884;SDS011;10602;48.000;9.654;2024-01-27T07:14:13;13.90;;;9.00;;
20884;SDS011;10602;48.000;9.654;2024-01-27T07:16:40;11.67;;;6.33;;
20884;SDS011;10602;48.000;9.654;2024-01-27T07:19:08;7.73;;;5.03;;
20884;SDS011;10602;48.000;9.654;2024-01-27T07:21:37;6.13;;;4.70;;
20884;SDS011;10602;48.000;9.654;2024-01-27T07:24:04;5.13;;;4.37;;
20884;SDS011;10602;48.000;9.654;2024-01-27T07:26:32;6.67;;;4.07;;
20884;SDS011;10602;48.000;9.654;2024-01-27T07:29:00;6.83;;;4.30;;
20884;SDS011;10602;48.000;9.654;2024-01-27T07:31:27;5.53;;;3.87;;
20884;SDS011;10602;48.000;9.654;2024-01-27T07:33:56;8.10;;;4.83;;
20884;SDS011;10602;48.000;9.654;2024-01-27T07:36:24;5.20;;;3.93;;
20884;SDS011;10602;48.000;9.654;2024-01-27T07:38:56;5.13;;;4.03;;
20884;SDS011;10602;48.000;9.654;2024-01-27T07:41:24;6.60;;;4.13;;
20884;SDS011;10602;48.000;9.654;2024-01-27T07:43:53;6.63;;;5.47;;
20884;SDS011;10602;48.000;9.654;2024-01-27T07:46:21;6.30;;;5.70;;
20884;SDS011;10602;48.000;9.654;2024-01-27T07:48:49;6.27;;;5.43;;
20884;SDS011;10602;48.000;9.654;2024-01-27T07:51:16;6.43;;;4.70;;
20884;SDS011;10602;48.000;9.654;2024-01-27T07:53:44;5.40;;;4.20;;
20884;SDS011;10602;48.000;9.654;2024-01-27T07:56:11;6.77;;;4.50;;
20884;SDS011;10602;48.000;9.654;2024-01-27T07:58:39;6.40;;;4.30;;
20884;SDS011;10602;48.000;9.654;2024-01-27T08:01:06;7.13;;;5.33;;
20884;SDS011;10602;48.000;9.654;2024-01-27T08:03:33;6.53;;;5.83;;
20884;SDS011;10602;48.000;9.654;2024-01-27T08:06:05;8.97;;;6.30;;
20884;SDS011;10602;48.000;9.654;2024-01-27T08:08:34;10.57;;;6.70;;
20884;SDS011;10602;48.000;9.654;2024-01-27T08:11:02;12.37;;;8.43;;
20884;SDS011;10602;48.000;9.654;2024-01-27T08:13:29;9.73;;;6.57;;
20884;SDS011;10602;48.000;9.654;2024-01-27T08:15:57;14.90;;;9.67;;
20884;SDS011;10602;48.000;9.654;2024-01-27T08:18:24;14.17;;;8.23;;
20884;SDS011;10602;48.000;9.654;2024-01-27T08:20:52;14.13;;;8.40;;
20884;SDS011;10602;48.000;9.654;2024-01-27T08:23:19;9.93;;;7.00;;
20884;SDS011;10602;48.000;9.654;2024-01-27T08:25:47;10.40;;;7.50;;
20884;SDS011;10602;48.000;9.654;2024-01-27T08:28:16;7.93;;;6.17;;
20884;SDS011;10602;48.000;9.654;2024-01-27T08:30:44;6.50;;;5.57;;
20884;SDS011;10602;48.000;9.654;2024-01-27T08:33:11;7.73;;;5.60;;
20884;SDS011;10602;48.000;9.654;2024-01-27T08:35:39;5.83;;;5.10;;
20884;SDS011;10602;48.000;9.654;2024-01-27T08:38:06;10.37;;;8.23;;
20884;SDS011;10602;48.000;9.654;2024-01-27T08:40:35;11.97;;;8.40;;
20884;SDS011;10602;48.000;9.654;2024-01-27T08:43:03;11.23;;;8.30;;
20884;SDS011;10602;48.000;9.654;2024-01-27T08:45:31;8.83;;;6.77;;
20884;SDS011;10602;48.000;9.654;2024-01-27T08:47:59;6.37;;;5.07;;
20884;SDS011;10602;48.000;9.654;2024-01-27T08:50:27;5.77;;;4.57;;
20884;SDS011;10602;48.000;9.654;2024-01-27T08:52:54;5.47;;;4.37;;
20884;SDS011;10602;48.000;9.654;2024-01-27T08:55:22;5.50;;;4.47;;
20884;SDS011;10602;48.000;9.654;2024-01-27T08:57:50;8.90;;;6.10;;
20884;SDS011;10602;48.000;9.654;2024-01-27T09:00:18;5.90;;;5.33;;
20884;SDS011;10602;48.000;9.654;2024-01-27T09:02:45;7.33;;;6.03;;
20884;SDS011;10602;48.000;9.654;2024-01-27T09:05:13;6.33;;;5.43;;
20884;SDS011;10602;48.000;9.654;2024-01-27T09:07:41;3.97;;;3.47;;
20884;SDS011;10602;48.000;9.654;2024-01-27T09:10:08;5.30;;;3.90;;
20884;SDS011;10602;48.000;9.654;2024-01-27T09:12:38;4.60;;;3.70;;
20884;SDS011;10602;48.000;9.654;2024-01-27T09:15:05;4.03;;;3.63;;
20884;SDS011;10602;48.000;9.654;2024-01-27T09:17:33;4.23;;;3.50;;
20884;SDS011;10602;48.000;9.654;2024-01-27T09:20:01;4.60;;;3.83;;
20884;SDS011;10602;48.000;9.654;2024-01-27T09:22:29;5.00;;;3.30;;
20884;SDS011;10602;48.000;9.654;2024-01-27T09:24:57;5.17;;;3.50;;
20884;SDS011;10602;48.000;9.654;2024-01-27T09:27:24;4.97;;;3.13;;
20884;SDS011;10602;48.000;9.654;2024-01-27T09:29:52;5.03;;;3.60;;
20884;SDS011;10602;48.000;9.654;2024-01-27T09:32:19;4.80;;;3.27;;
20884;SDS011;10602;48.000;9.654;2024-01-27T09:34:47;4.97;;;3.50;;
20884;SDS011;10602;48.000;9.654;2024-01-27T09:37:14;5.00;;;3.00;;
20884;SDS011;10602;48.000;9.654;2024-01-27T09:39:42;8.60;;;3.83;;
20884;SDS011;10602;48.000;9.654;2024-01-27T09:42:09;5.67;;;3.47;;
20884;SDS011;10602;48.000;9.654;2024-01-27T09:44:47;4.60;;;3.13;;
20884;SDS011;10602;48.000;9.654;2024-01-27T09:47:11;5.80;;;3.43;;
20884;SDS011;10602;48.000;9.654;2024-01-27T09:49:39;5.03;;;3.50;;
20884;SDS011;10602;48.000;9.654;2024-01-27T09:52:08;5.10;;;3.40;;
20884;SDS011;10602;48.000;9.654;2024-01-27T09:54:35;7.77;;;3.83;;
20884;SDS011;10602;48.000;9.654;2024-01-27T09:57:03;7.40;;;4.17;;
20884;SDS011;10602;48.000;9.654;2024-01-27T09:59:32;5.53;;;3.97;;
20884;SDS011;10602;48.000;9.654;2024-01-27T10:02:02;6.40;;;3.97;;
20884;SDS011;10602;48.000;9.654;2024-01-27T10:04:30;4.97;;;3.83;;
20884;SDS011;10602;48.000;9.654;2024-01-27T10:06:59;4.80;;;3.97;;
20884;SDS011;10602;48.000;9.654;2024-01-27T10:09:26;4.73;;;3.77;;
20884;SDS011;10602;48.000;9.654;2024-01-27T10:11:54;5.47;;;3.93;;
20884;SDS011;10602;48.000;9.654;2024-01-27T10:14:23;8.17;;;5.50;;
20884;SDS011;10602;48.000;9.654;2024-01-27T10:16:50;6.47;;;4.20;;
20884;SDS011;10602;48.000;9.654;2024-01-27T10:19:18;4.93;;;3.70;;
20884;SDS011;10602;48.000;9.654;2024-01-27T10:21:47;5.83;;;3.70;;
20884;SDS011;10602;48.000;9.654;2024-01-27T10:24:14;4.23;;;3.73;;
20884;SDS011;10602;48.000;9.654;2024-01-27T10:26:42;9.53;;;5.73;;
20884;SDS011;10602;48.000;9.654;2024-01-27T10:29:09;6.20;;;4.73;;
20884;SDS011;10602;48.000;9.654;2024-01-27T10:31:38;8.40;;;6.33;;
20884;SDS011;10602;48.000;9.654;2024-01-27T10:34:05;4.17;;;3.53;;
20884;SDS011;10602;48.000;9.654;2024-01-27T10:36:39;5.37;;;3.47;;
20884;SDS011;10602;48.000;9.654;2024-01-27T10:39:17;5.07;;;3.23;;
20884;SDS011;10602;48.000;9.654;2024-01-27T10:41:48;6.83;;;3.30;;
20884;SDS011;10602;48.000;9.654;2024-01-27T10:44:17;4.87;;;3.30;;
20884;SDS011;10602;48.000;9.654;2024-01-27T10:46:46;5.17;;;3.40;;
20884;SDS011;10602;48.000;9.654;2024-01-27T10:49:17;3.80;;;2.73;;
20884;SDS011;10602;48.000;9.654;2024-01-27T10:51:46;4.97;;;3.13;;
20884;SDS011;10602;48.000;9.654;2024-01-27T10:54:23;5.03;;;3.23;;
20884;SDS011;10602;48.000;9.654;2024-01-27T10:56:57;5.03;;;2.80;;
20884;SDS011;10602;48.000;9.654;2024-01-27T10:59:26;4.67;;;2.90;;
20884;SDS011;10602;48.000;9.654;2024-01-27T11:01:55;4.20;;;3.10;;
20884;SDS011;10602;48.000;9.654;2024-01-27T11:04:23;3.97;;;2.90;;
20884;SDS011;10602;48.000;9.654;2024-01-27T11:06:52;7.23;;;2.90;;
20884;SDS011;10602;48.000;9.654;2024-01-27T11:09:21;5.30;;;2.60;;
20884;SDS011;10602;48.000;9.654;2024-01-27T11:11:50;4.33;;;2.90;;
20884;SDS011;10602;48.000;9.654;2024-01-27T11:14:18;4.47;;;2.97;;
20884;SDS011;10602;48.000;9.654;2024-01-27T11:16:53;3.80;;;2.93;;
20884;SDS011;10602;48.000;9.654;2024-01-27T11:19:23;5.53;;;3.67;;
20884;SDS011;10602;48.000;9.654;2024-01-27T11:22:03;4.73;;;2.90;;
20884;SDS011;10602;48.000;9.654;2024-01-27T11:24:31;5.07;;;2.93;;
20884;SDS011;10602;48.000;9.654;2024-01-27T11:27:02;4.83;;;2.83;;
20884;SDS011;10602;48.000;9.654;2024-01-27T11:29:30;3.90;;;2.80;;
20884;SDS011;10602;48.000;9.654;2024-01-27T11:32:02;4.10;;;2.87;;
20884;SDS011;10602;48.000;9.654;2024-01-27T11:34:43;5.07;;;3.10;;
20884;SDS011;10602;48.000;9.654;2024-01-27T11:37:11;4.33;;;3.00;;
20884;SDS011;10602;48.000;9.654;2024-01-27T11:39:40;3.93;;;2.83;;
20884;SDS011;10602;48.000;9.654;2024-01-27T11:42:09;4.80;;;2.50;;
20884;SDS011;10602;48.000;9.654;2024-01-27T11:44:41;4.10;;;2.80;;
20884;SDS011;10602;48.000;9.654;2024-01-27T11:47:17;5.93;;;3.00;;
20884;SDS011;10602;48.000;9.654;2024-01-27T11:49:55;3.93;;;2.70;;
20884;SDS011;10602;48.000;9.654;2024-01-27T11:52:27;3.73;;;3.07;;
20884;SDS011;10602;48.000;9.654;2024-01-27T11:54:55;4.97;;;2.70;;
20884;SDS011;10602;48.000;9.654;2024-01-27T11:57:23;5.17;;;3.20;;
20884;SDS011;10602;48.000;9.654;2024-01-27T11:59:56;8.70;;;3.37;;
20884;SDS011;10602;48.000;9.654;2024-01-27T12:02:23;4.20;;;2.87;;
20884;SDS011;10602;48.000;9.654;2024-01-27T12:04:50;5.27;;;2.80;;
20884;SDS011;10602;48.000;9.654;2024-01-27T12:07:19;3.83;;;2.67;;
20884;SDS011;10602;48.000;9.654;2024-01-27T12:09:48;3.57;;;2.53;;
20884;SDS011;10602;48.000;9.654;2024-01-27T12:12:16;7.17;;;2.80;;
20884;SDS011;10602;48.000;9.654;2024-01-27T12:14:47;4.60;;;2.67;;
20884;SDS011;10602;48.000;9.654;2024-01-27T12:17:16;3.40;;;2.60;;
20884;SDS011;10602;48.000;9.654;2024-01-27T12:19:47;5.90;;;2.90;;
20884;SDS011;10602;48.000;9.654;2024-01-27T12:22:21;4.93;;;2.70;;
20884;SDS011;10602;48.000;9.654;2024-01-27T12:24:53;4.60;;;2.97;;
20884;SDS011;10602;48.000;9.654;2024-01-27T12:27:21;4.67;;;2.70;;
20884;SDS011;10602;48.000;9.654;2024-01-27T12:29:49;4.57;;;3.10;;
20884;SDS011;10602;48.000;9.654;2024-01-27T12:32:22;3.67;;;2.90;;
20884;SDS011;10602;48.000;9.654;2024-01-27T12:34:46;6.20;;;2.90;;
20884;SDS011;10602;48.000;9.654;2024-01-27T12:37:15;4.70;;;3.10;;
20884;SDS011;10602;48.000;9.654;2024-01-27T12:39:43;4.10;;;3.10;;
20884;SDS011;10602;48.000;9.654;2024-01-27T12:42:11;5.33;;;3.50;;
20884;SDS011;10602;48.000;9.654;2024-01-27T12:44:39;5.57;;;2.80;;
20884;SDS011;10602;48.000;9.654;2024-01-27T12:47:06;4.53;;;2.60;;
20884;SDS011;10602;48.000;9.654;2024-01-27T12:49:34;4.90;;;2.97;;
20884;SDS011;10602;48.000;9.654;2024-01-27T12:52:02;4.27;;;2.60;;
20884;SDS011;10602;48.000;9.654;2024-01-27T12:54:33;3.93;;;2.57;;
20884;SDS011;10602;48.000;9.654;2024-01-27T12:57:00;3.50;;;2.47;;
20884;SDS011;10602;48.000;9.654;2024-01-27T12:59:28;3.77;;;2.63;;
20884;SDS011;10602;48.000;9.654;2024-01-27T13:01:56;4.37;;;2.70;;
20884;SDS011;10602;48.000;9.654;2024-01-27T13:04:24;5.17;;;2.80;;
20884;SDS011;10602;48.000;9.654;2024-01-27T13:06:51;2.77;;;2.07;;
20884;SDS011;10602;48.000;9.654;2024-01-27T13:09:20;4.57;;;2.57;;
20884;SDS011;10602;48.000;9.654;2024-01-27T13:11:48;4.83;;;2.67;;
20884;SDS011;10602;48.000;9.654;2024-01-27T13:14:16;6.33;;;3.30;;
20884;SDS011;10602;48.000;9.654;2024-01-27T13:16:45;3.97;;;2.80;;
20884;SDS011;10602;48.000;9.654;2024-01-27T13:19:12;3.77;;;2.70;;
20884;SDS011;10602;48.000;9.654;2024-01-27T13:21:40;4.00;;;2.73;;
20884;SDS011;10602;48.000;9.654;2024-01-27T13:24:07;5.27;;;2.70;;
20884;SDS011;10602;48.000;9.654;2024-01-27T13:26:35;4.87;;;3.00;;
20884;SDS011;10602;48.000;9.654;2024-01-27T13:29:06;4.83;;;3.00;;
20884;SDS011;10602;48.000;9.654;2024-01-27T13:31:34;3.80;;;3.10;;
20884;SDS011;10602;48.000;9.654;2024-01-27T13:34:01;4.80;;;3.10;;
20884;SDS011;10602;48.000;9.654;2024-01-27T13:36:30;4.30;;;2.80;;
20884;SDS011;10602;48.000;9.654;2024-01-27T13:38:57;3.50;;;2.40;;
20884;SDS011;10602;48.000;9.654;2024-01-27T13:41:25;3.87;;;2.57;;
20884;SDS011;10602;48.000;9.654;2024-01-27T13:43:52;4.17;;;3.00;;
20884;SDS011;10602;48.000;9.654;2024-01-27T13:46:20;5.20;;;3.03;;
20884;SDS011;10602;48.000;9.654;2024-01-27T13:48:48;5.77;;;2.77;;
20884;SDS011;10602;48.000;9.654;2024-01-27T13:51:16;4.00;;;2.73;;
20884;SDS011;10602;48.000;9.654;2024-01-27T13:53:43;4.07;;;2.57;;
20884;SDS011;10602;48.000;9.654;2024-01-27T13:56:11;4.10;;;2.40;;
20884;SDS011;10602;48.000;9.654;2024-01-27T13:58:38;3.80;;;2.70;;
20884;SDS011;10602;48.000;9.654;2024-01-27T14:01:06;4.43;;;3.00;;
20884;SDS011;10602;48.000;9.654;2024-01-27T14:03:34;4.20;;;2.77;;
20884;SDS011;10602;48.000;9.654;2024-01-27T14:06:02;3.87;;;2.47;;
20884;SDS011;10602;48.000;9.654;2024-01-27T14:08:30;4.03;;;2.57;;
20884;SDS011;10602;48.000;9.654;2024-01-27T14:10:57;3.40;;;2.50;;
20884;SDS011;10602;48.000;9.654;2024-01-27T14:13:25;4.47;;;2.43;;
20884;SDS011;10602;48.000;9.654;2024-01-27T14:15:52;4.73;;;2.50;;
20884;SDS011;10602;48.000;9.654;2024-01-27T14:18:20;4.43;;;2.70;;
20884;SDS011;10602;48.000;9.654;2024-01-27T14:20:48;4.67;;;2.73;;
20884;SDS011;10602;48.000;9.654;2024-01-27T14:23:15;5.63;;;2.47;;
20884;SDS011;10602;48.000;9.654;2024-01-27T14:25:44;3.60;;;2.30;;
20884;SDS011;10602;48.000;9.654;2024-01-27T14:28:12;4.77;;;2.40;;
20884;SDS011;10602;48.000;9.654;2024-01-27T14:30:40;6.00;;;3.10;;
20884;SDS011;10602;48.000;9.654;2024-01-27T14:33:07;3.27;;;2.20;;
20884;SDS011;10602;48.000;9.654;2024-01-27T14:35:34;5.37;;;2.67;;
20884;SDS011;10602;48.000;9.654;2024-01-27T14:38:01;5.80;;;2.50;;
20884;SDS011;10602;48.000;9.654;2024-01-27T14:40:30;3.63;;;2.43;;
20884;SDS011;10602;48.000;9.654;2024-01-27T14:42:58;4.80;;;2.80;;
20884;SDS011;10602;48.000;9.654;2024-01-27T14:45:25;4.90;;;2.67;;
20884;SDS011;10602;48.000;9.654;2024-01-27T14:47:53;5.70;;;2.80;;
20884;SDS011;10602;48.000;9.654;2024-01-27T14:50:20;4.43;;;2.80;;
20884;SDS011;10602;48.000;9.654;2024-01-27T14:52:48;4.43;;;2.90;;